Time;durP1;ratioP1;P1;durP2;ratioP2;P2;SDS_P1;SDS_P2;PMS_P1;PMS_P2;Temp;Humidity;BMP_temperature;BMP_pressure;BME280_temperature;BME280_humidity;BME280_pressure;Samples;Min_cycle;Max_cycle;Signal;HPM_P1;HPM_P2
2022/01/09 00:00:40;;;;;;;0.35;0.35;;;6.10;57.30;;;;;;5062532;28;34445;-76
2022/01/09 00:03:07;;;;;;;0.40;0.40;;;6.10;57.40;;;;;;5063263;28;34239;-76
2022/01/09 00:05:34;;;;;;;0.30;0.30;;;6.10;57.30;;;;;;5063698;28;35150;-76
2022/01/09 00:08:00;;;;;;;0.63;0.50;;;6.20;57.20;;;;;;5062616;28;34303;-76
2022/01/09 00:10:28;;;;;;;0.60;0.60;;;6.20;57.90;;;;;;5062501;28;34348;-77
2022/01/09 00:12:54;;;;;;;0.50;0.50;;;6.20;57.50;;;;;;5062771;28;34308;-76
2022/01/09 00:15:20;;;;;;;1.23;0.50;;;6.20;57.20;;;;;;5063226;28;34072;-77
2022/01/09 00:17:47;;;;;;;0.88;0.70;;;6.20;57.50;;;;;;5063571;28;34066;-76
2022/01/09 00:20:13;;;;;;;0.77;0.60;;;6.20;57.40;;;;;;5079543;28;34181;-77
2022/01/09 00:22:46;;;;;;;0.70;0.63;;;6.20;57.30;;;;;;5045558;28;34140;-76
2022/01/09 00:25:14;;;;;;;0.77;0.77;;;6.20;57.40;;;;;;5061474;28;36214;-76
2022/01/09 00:27:40;;;;;;;0.80;0.60;;;6.20;57.30;;;;;;5062595;28;34151;-76
2022/01/09 00:30:08;;;;;;;0.60;0.60;;;6.30;57.50;;;;;;5093562;27;34371;-76
2022/01/09 00:32:35;;;;;;;0.70;0.70;;;6.30;57.40;;;;;;5103321;27;34448;-76
2022/01/09 00:35:01;;;;;;;0.65;0.60;;;6.30;57.40;;;;;;5068775;28;35483;-76
2022/01/09 00:37:27;;;;;;;0.85;0.70;;;6.30;57.60;;;;;;5086099;28;34238;-76
2022/01/09 00:39:53;;;;;;;0.38;0.38;;;6.30;57.40;;;;;;5104533;28;34296;-76
2022/01/09 00:42:19;;;;;;;0.40;0.40;;;6.30;57.60;;;;;;5103583;27;34198;-76
2022/01/09 00:44:45;;;;;;;0.63;0.50;;;6.30;57.50;;;;;;5103209;28;35798;-76
2022/01/09 00:47:11;;;;;;;0.40;0.40;;;6.30;57.70;;;;;;5085546;28;34278;-76
2022/01/09 00:49:37;;;;;;;0.40;0.40;;;6.30;57.60;;;;;;5085637;28;34218;-77
2022/01/09 00:52:04;;;;;;;0.32;0.32;;;6.40;57.60;;;;;;5086256;28;34142;-76
2022/01/09 00:54:30;;;;;;;0.30;0.30;;;6.40;57.50;;;;;;5085178;28;36358;-76
2022/01/09 00:56:56;;;;;;;0.30;0.30;;;6.40;57.40;;;;;;5102760;27;34438;-77
2022/01/09 00:59:22;;;;;;;0.45;0.30;;;6.40;57.30;;;;;;5086035;28;34078;-76
2022/01/09 01:01:48;;;;;;;0.20;0.20;;;6.50;57.30;;;;;;5084884;28;34329;-77
2022/01/09 01:04:14;;;;;;;0.20;0.20;;;6.50;57.10;;;;;;5102550;28;34371;-77
2022/01/09 01:06:40;;;;;;;0.20;0.20;;;6.50;57.10;;;;;;5085324;28;34131;-76
2022/01/09 01:09:06;;;;;;;0.20;0.20;;;6.60;57.00;;;;;;5085896;28;34413;-77
2022/01/09 01:11:32;;;;;;;0.20;0.20;;;6.60;57.00;;;;;;5086638;28;34121;-76
2022/01/09 01:13:58;;;;;;;0.20;0.20;;;6.60;56.90;;;;;;5086017;28;36691;-77
2022/01/09 01:16:24;;;;;;;0.20;0.20;;;6.60;56.70;;;;;;5085439;28;34381;-76
2022/01/09 01:18:54;;;;;;;0.20;0.20;;;6.60;56.30;;;;;;5085606;28;34270;-77
2022/01/09 01:21:23;;;;;;;0.20;0.20;;;6.60;56.30;;;;;;5103463;28;34303;-77
2022/01/09 01:23:50;;;;;;;0.70;0.20;;;6.60;56.40;;;;;;5085455;28;35927;-78
2022/01/09 01:26:16;;;;;;;0.10;0.10;;;6.60;56.40;;;;;;5085267;28;34100;-77
2022/01/09 01:28:42;;;;;;;0.20;0.20;;;6.50;55.50;;;;;;5102448;28;34328;-77
2022/01/09 01:31:08;;;;;;;0.10;0.10;;;6.50;56.00;;;;;;5085077;28;34535;-77
2022/01/09 01:33:34;;;;;;;0.20;0.20;;;6.40;55.50;;;;;;5084618;28;35423;-77
2022/01/09 01:36:01;;;;;;;0.10;0.10;;;6.40;56.00;;;;;;5084652;28;34154;-78
2022/01/09 01:38:27;;;;;;;0.20;0.10;;;6.40;55.80;;;;;;5084764;28;34272;-77
2022/01/09 01:40:54;;;;;;;0.20;0.20;;;6.30;55.50;;;;;;5085592;28;34127;-77
2022/01/09 01:43:20;;;;;;;0.20;0.20;;;6.20;55.40;;;;;;5084252;28;35774;-77
2022/01/09 01:45:45;;;;;;;0.10;0.10;;;6.20;55.40;;;;;;5084650;28;34429;-77
2022/01/09 01:48:11;;;;;;;0.10;0.10;;;6.10;55.50;;;;;;5102628;28;34433;-77
2022/01/09 01:50:38;;;;;;;0.10;0.10;;;6.10;56.20;;;;;;5085306;28;34527;-77
2022/01/09 01:53:07;;;;;;;0.20;0.20;;;6.00;55.60;;;;;;5084258;28;35730;-77
2022/01/09 01:55:37;;;;;;;0.20;0.20;;;6.00;55.50;;;;;;5103155;28;34380;-77
2022/01/09 01:58:05;;;;;;;0.20;0.20;;;5.90;55.40;;;;;;5084720;28;34211;-77
2022/01/09 02:00:31;;;;;;;0.10;0.10;;;5.90;55.80;;;;;;5084551;28;34512;-77
2022/01/09 02:02:57;;;;;;;0.13;0.13;;;5.80;55.70;;;;;;5084297;28;35595;-77
2022/01/09 02:05:23;;;;;;;0.40;0.20;;;5.80;55.70;;;;;;5084368;28;34275;-77
2022/01/09 02:07:51;;;;;;;0.32;0.20;;;5.80;55.90;;;;;;5084769;28;34316;-76
2022/01/09 02:10:17;;;;;;;0.20;0.20;;;5.70;55.90;;;;;;5084290;28;34148;-76
2022/01/09 02:12:44;;;;;;;0.10;0.10;;;5.70;56.00;;;;;;5084161;28;35634;-77
2022/01/09 02:15:27;;;;;;;0.20;0.20;;;5.70;55.70;;;;;;5087369;28;34201;-77
2022/01/09 02:17:54;;;;;;;0.20;0.20;;;5.60;55.70;;;;;;5087624;28;34270;-77
2022/01/09 02:20:20;;;;;;;0.20;0.20;;;5.60;55.80;;;;;;5087704;28;34246;-77
2022/01/09 02:22:46;;;;;;;0.47;0.20;;;5.60;55.80;;;;;;5121964;27;35636;-77
2022/01/09 02:25:14;;;;;;;0.20;0.20;;;5.50;56.50;;;;;;5105685;28;34293;-77
2022/01/09 02:27:40;;;;;;;0.20;0.20;;;5.50;55.90;;;;;;5088151;28;34242;-77
2022/01/09 02:30:07;;;;;;;0.30;0.30;;;5.50;55.70;;;;;;5105501;28;34377;-76
2022/01/09 02:32:33;;;;;;;0.25;0.20;;;5.50;55.90;;;;;;5070715;28;35947;-76
2022/01/09 02:34:59;;;;;;;0.20;0.20;;;5.40;55.60;;;;;;5087506;28;34155;-77
2022/01/09 02:37:26;;;;;;;0.22;0.22;;;5.40;55.60;;;;;;5087629;28;34335;-77
2022/01/09 02:39:53;;;;;;;0.30;0.20;;;5.50;55.70;;;;;;5087498;28;34177;-77
2022/01/09 02:42:23;;;;;;;0.43;0.20;;;5.40;55.80;;;;;;5105010;28;34449;-76
2022/01/09 02:44:49;;;;;;;0.40;0.25;;;5.40;56.10;;;;;;5087379;28;34272;-76
2022/01/09 02:47:16;;;;;;;0.15;0.15;;;5.40;55.70;;;;;;5087173;28;34187;-76
2022/01/09 02:49:47;;;;;;;0.20;0.20;;;5.30;55.80;;;;;;5070617;28;34211;-76
2022/01/09 02:52:26;;;;;;;0.28;0.28;;;5.30;55.80;;;;;;5088462;28;34405;-76
2022/01/09 02:57:33;;;;;;;1.02;0.50;;;5.30;55.80;;;;;;5105095;28;34210;-77
2022/01/09 02:59:59;;;;;;;0.35;0.30;;;5.30;55.80;;;;;;5104434;27;34460;-77
2022/01/09 03:02:25;;;;;;;0.38;0.30;;;5.30;55.90;;;;;;5103965;28;35697;-77
2022/01/09 03:04:51;;;;;;;1.27;0.30;;;5.30;55.80;;;;;;5105942;28;34288;-77
2022/01/09 03:07:17;;;;;;;1.25;0.50;;;5.30;56.00;;;;;;5087791;28;34321;-77
2022/01/09 03:09:43;;;;;;;1.95;0.60;;;5.30;56.00;;;;;;5087592;28;34306;-77
2022/01/09 03:12:11;;;;;;;1.98;0.60;;;5.30;56.00;;;;;;5087293;28;36821;-77
2022/01/09 03:14:37;;;;;;;0.95;0.65;;;5.30;56.00;;;;;;5104058;27;34440;-77
2022/01/09 03:17:04;;;;;;;1.42;0.80;;;5.30;56.00;;;;;;5087265;28;34161;-77
2022/01/09 03:19:30;;;;;;;3.90;0.98;;;5.30;56.00;;;;;;5087589;28;34215;-77
2022/01/09 03:21:56;;;;;;;4.35;1.23;;;5.40;56.70;;;;;;5086957;28;35834;-77
2022/01/09 03:24:22;;;;;;;4.72;1.25;;;5.40;56.10;;;;;;5105007;27;34368;-77
2022/01/09 03:26:48;;;;;;;4.85;1.33;;;5.40;56.20;;;;;;5103909;28;34271;-77
2022/01/09 03:29:14;;;;;;;4.88;1.35;;;5.50;56.10;;;;;;5104705;28;34372;-78
2022/01/09 03:31:40;;;;;;;3.65;1.27;;;5.50;56.20;;;;;;5104785;28;35095;-77
2022/01/09 03:34:06;;;;;;;1.98;1.00;;;5.60;56.00;;;;;;5070539;28;34110;-77
2022/01/09 03:36:32;;;;;;;5.20;1.35;;;5.60;56.10;;;;;;5086956;28;34319;-77
2022/01/09 03:38:58;;;;;;;3.33;1.40;;;5.60;55.90;;;;;;5105136;28;34160;-77
2022/01/09 03:41:24;;;;;;;8.38;1.60;;;5.70;55.80;;;;;;5104219;27;35698;-77
2022/01/09 03:43:50;;;;;;;2.35;1.08;;;5.80;55.80;;;;;;5086632;28;34275;-77
2022/01/09 03:46:16;;;;;;;3.85;1.23;;;5.80;56.30;;;;;;5104105;27;34210;-77
2022/01/09 03:48:42;;;;;;;8.57;1.50;;;5.80;55.80;;;;;;5087218;28;34261;-77
2022/01/09 03:51:10;;;;;;;8.23;1.15;;;5.90;55.90;;;;;;5086906;28;35535;-78
2022/01/09 03:53:36;;;;;;;5.03;1.48;;;5.90;55.20;;;;;;5105181;27;34378;-77
2022/01/09 03:56:03;;;;;;;8.75;2.28;;;5.90;55.60;;;;;;5105372;28;34339;-77
2022/01/09 03:58:29;;;;;;;5.35;1.75;;;6.00;55.30;;;;;;5070472;28;34040;-78
2022/01/09 04:00:55;;;;;;;4.20;1.60;;;6.00;55.40;;;;;;5087285;28;34290;-77
2022/01/09 04:03:21;;;;;;;5.78;1.25;;;6.00;55.30;;;;;;5087201;28;34100;-77
2022/01/09 04:05:47;;;;;;;8.15;1.65;;;6.00;55.60;;;;;;5104955;28;34339;-77
2022/01/09 04:08:13;;;;;;;8.82;1.60;;;6.00;55.30;;;;;;5104774;28;34374;-77
2022/01/09 04:10:42;;;;;;;4.50;1.52;;;6.00;55.40;;;;;;5104204;27;35748;-78
2022/01/09 04:13:12;;;;;;;5.68;1.27;;;6.00;55.10;;;;;;5105342;28;34163;-78
2022/01/09 04:15:41;;;;;;;4.47;1.55;;;6.00;55.20;;;;;;5106272;28;34365;-77
2022/01/09 04:18:07;;;;;;;6.80;1.70;;;6.10;55.00;;;;;;5086671;28;34104;-78
2022/01/09 04:20:33;;;;;;;8.93;1.73;;;6.10;54.80;;;;;;5069681;28;35561;-77
2022/01/09 04:23:00;;;;;;;8.30;1.80;;;6.10;55.20;;;;;;5086842;28;34307;-77
2022/01/09 04:25:27;;;;;;;4.10;1.55;;;6.10;55.10;;;;;;5087024;28;34314;-78
2022/01/09 04:27:53;;;;;;;4.50;1.27;;;6.10;55.00;;;;;;5069555;28;34097;-77
2022/01/09 04:30:20;;;;;;;6.65;1.50;;;6.10;54.70;;;;;;5085651;28;35509;-77
2022/01/09 04:32:46;;;;;;;7.45;1.38;;;6.10;54.50;;;;;;5104061;28;34101;-77
2022/01/09 04:35:13;;;;;;;3.83;1.17;;;6.10;54.70;;;;;;5085778;28;34175;-77
2022/01/09 04:37:39;;;;;;;4.38;1.45;;;6.10;54.80;;;;;;5086823;28;34385;-77
2022/01/09 04:40:09;;;;;;;7.57;1.75;;;6.10;54.70;;;;;;5085967;28;35839;-78
2022/01/09 04:42:43;;;;;;;5.18;1.42;;;6.10;55.10;;;;;;5103360;28;34408;-77
2022/01/09 04:45:10;;;;;;;3.67;1.27;;;6.10;55.10;;;;;;5086506;28;34200;-78
2022/01/09 04:47:36;;;;;;;5.90;1.58;;;6.10;55.20;;;;;;5087474;28;34068;-78
2022/01/09 04:50:03;;;;;;;7.63;1.70;;;6.10;55.20;;;;;;5086774;28;34929;-78
2022/01/09 04:52:33;;;;;;;6.15;1.70;;;6.10;55.10;;;;;;5086638;28;34135;-77
2022/01/09 04:55:00;;;;;;;6.38;1.98;;;6.00;54.90;;;;;;5086397;28;34319;-77
2022/01/09 04:57:26;;;;;;;6.22;1.80;;;6.10;55.00;;;;;;5086189;28;34247;-78
2022/01/09 04:59:52;;;;;;;4.10;1.63;;;6.10;54.90;;;;;;5069188;28;35555;-77
2022/01/09 05:02:18;;;;;;;4.55;1.63;;;6.00;54.80;;;;;;5070438;28;34006;-78
2022/01/09 05:04:44;;;;;;;3.92;1.83;;;6.10;54.80;;;;;;5103868;27;34257;-78
2022/01/09 05:07:10;;;;;;;3.25;1.38;;;6.00;54.60;;;;;;5088098;28;34267;-78
2022/01/09 05:09:36;;;;;;;4.18;1.63;;;6.00;54.70;;;;;;5069622;28;36305;-78
2022/01/09 05:12:02;;;;;;;2.40;1.30;;;6.00;54.70;;;;;;5085486;28;34175;-78
2022/01/09 05:14:28;;;;;;;4.75;1.70;;;6.00;54.70;;;;;;5069067;28;34321;-78
2022/01/09 05:16:54;;;;;;;2.63;1.30;;;6.00;54.80;;;;;;5085774;28;34520;-78
2022/01/09 05:19:28;;;;;;;5.53;1.80;;;6.00;55.00;;;;;;5085819;28;35439;-78
2022/01/09 05:21:55;;;;;;;2.88;1.67;;;6.00;54.90;;;;;;5104305;28;34194;-78
2022/01/09 05:24:21;;;;;;;6.03;1.33;;;6.00;55.10;;;;;;5068836;28;34200;-78
2022/01/09 05:26:47;;;;;;;7.07;1.38;;;5.90;54.90;;;;;;5103571;28;34326;-78
2022/01/09 05:29:13;;;;;;;6.13;1.50;;;5.90;55.10;;;;;;5084121;28;35772;-77
2022/01/09 05:31:39;;;;;;;6.25;1.30;;;5.90;55.10;;;;;;5104522;28;34238;-78
2022/01/09 05:34:07;;;;;;;4.53;1.50;;;5.90;54.90;;;;;;5102845;27;34218;-78
2022/01/09 05:36:33;;;;;;;5.72;1.83;;;5.90;55.00;;;;;;5085771;28;34532;-78
2022/01/09 05:38:59;;;;;;;4.72;1.10;;;5.90;54.50;;;;;;5085724;28;35598;-78
2022/01/09 05:41:26;;;;;;;5.43;1.33;;;5.90;54.80;;;;;;5085669;28;34238;-78
2022/01/09 05:43:52;;;;;;;3.47;1.13;;;5.90;55.00;;;;;;5086876;28;34167;-78
2022/01/09 05:46:18;;;;;;;4.50;1.17;;;5.90;54.70;;;;;;5085951;28;34377;-79
2022/01/09 05:48:44;;;;;;;5.80;0.95;;;5.90;54.70;;;;;;5087743;28;35751;-78
2022/01/09 05:51:10;;;;;;;4.43;1.30;;;5.90;54.40;;;;;;5073221;28;34278;-78
2022/01/09 05:53:36;;;;;;;3.72;1.15;;;5.90;54.30;;;;;;5088904;28;34335;-78
2022/01/09 05:56:02;;;;;;;3.13;1.08;;;5.80;54.40;;;;;;5107048;28;34423;-78
2022/01/09 05:58:28;;;;;;;2.65;1.35;;;5.90;54.60;;;;;;5106692;28;34385;-77
2022/01/09 06:00:54;;;;;;;3.55;1.63;;;5.80;54.40;;;;;;5089182;28;34322;-77
2022/01/09 06:03:20;;;;;;;2.83;1.40;;;5.80;54.60;;;;;;5088676;28;34085;-78
2022/01/09 06:05:46;;;;;;;4.65;1.17;;;5.80;55.20;;;;;;5106822;28;34167;-77
2022/01/09 06:08:12;;;;;;;4.70;1.10;;;5.80;54.40;;;;;;5088389;28;36671;-77
2022/01/09 06:10:38;;;;;;;5.22;1.50;;;5.70;54.60;;;;;;5088336;28;34208;-77
2022/01/09 06:13:04;;;;;;;6.45;1.33;;;5.70;54.50;;;;;;5089073;28;34103;-78
2022/01/09 06:15:30;;;;;;;2.92;1.45;;;5.70;54.80;;;;;;5089633;28;34075;-78
2022/01/09 06:17:56;;;;;;;2.38;1.17;;;5.70;54.70;;;;;;5088771;28;35396;-77
2022/01/09 06:20:22;;;;;;;4.47;0.88;;;5.70;54.80;;;;;;5106888;28;34201;-78
2022/01/09 06:22:48;;;;;;;7.85;1.40;;;5.60;54.60;;;;;;5088009;28;33787;-78
2022/01/09 06:25:15;;;;;;;3.10;1.20;;;5.60;54.80;;;;;;5071574;28;34491;-77
2022/01/09 06:27:42;;;;;;;4.10;0.88;;;5.60;54.70;;;;;;5087990;28;35713;-77
2022/01/09 06:30:09;;;;;;;5.85;1.38;;;5.60;54.70;;;;;;5087780;28;34254;-78
2022/01/09 06:32:35;;;;;;;7.45;1.27;;;5.60;54.80;;;;;;5088822;28;34335;-78
2022/01/09 06:35:01;;;;;;;3.55;1.00;;;5.60;54.70;;;;;;5088344;28;34074;-77
2022/01/09 06:37:27;;;;;;;4.50;1.08;;;5.60;54.70;;;;;;5087978;28;35661;-78
2022/01/09 06:39:53;;;;;;;4.03;1.38;;;5.60;54.70;;;;;;5087769;28;34321;-78
2022/01/09 06:42:19;;;;;;;2.67;1.13;;;5.60;54.90;;;;;;5087989;28;34571;-78
2022/01/09 06:44:45;;;;;;;5.57;1.10;;;5.50;54.70;;;;;;5088655;28;34284;-78
2022/01/09 06:47:11;;;;;;;7.65;1.40;;;5.50;54.90;;;;;;5105882;28;34399;-78
2022/01/09 06:49:37;;;;;;;7.50;1.20;;;5.50;54.90;;;;;;5070754;28;34290;-78
2022/01/09 06:52:04;;;;;;;4.45;1.10;;;5.60;54.60;;;;;;5106196;28;34148;-78
2022/01/09 06:54:31;;;;;;;4.72;1.35;;;5.50;54.80;;;;;;5104918;27;34455;-78
2022/01/09 06:56:57;;;;;;;7.28;1.20;;;5.50;54.90;;;;;;5087725;28;35745;-77
2022/01/09 06:59:23;;;;;;;3.00;1.20;;;5.60;54.90;;;;;;5086988;28;34230;-77
2022/01/09 07:01:50;;;;;;;3.35;1.33;;;5.50;54.80;;;;;;5086585;28;34293;-77
2022/01/09 07:04:16;;;;;;;3.83;1.10;;;5.50;54.20;;;;;;5087186;28;34478;-78
2022/01/09 07:06:42;;;;;;;6.97;1.38;;;5.50;54.10;;;;;;5086713;28;35494;-77
2022/01/09 07:09:08;;;;;;;8.32;1.40;;;5.50;54.20;;;;;;5086531;28;34096;-77
2022/01/09 07:11:34;;;;;;;3.28;0.90;;;5.50;54.20;;;;;;5086697;28;34124;-77
2022/01/09 07:14:00;;;;;;;5.10;1.63;;;5.50;54.10;;;;;;5105782;28;34146;-78
2022/01/09 07:16:27;;;;;;;3.25;1.27;;;5.50;54.20;;;;;;5086783;28;34413;-77
2022/01/09 07:18:53;;;;;;;2.17;0.93;;;5.50;54.20;;;;;;5087119;28;34251;-78
2022/01/09 07:21:19;;;;;;;3.65;1.50;;;5.50;53.80;;;;;;5105268;28;34384;-77
2022/01/09 07:23:45;;;;;;;2.70;1.10;;;5.50;54.10;;;;;;5087216;28;34533;-77
2022/01/09 07:26:11;;;;;;;2.58;1.17;;;5.50;53.90;;;;;;5086366;28;36495;-77
2022/01/09 07:28:37;;;;;;;4.28;1.00;;;5.40;54.00;;;;;;5104545;28;34383;-77
2022/01/09 07:31:03;;;;;;;5.15;0.98;;;5.40;53.80;;;;;;5085885;28;34307;-77
2022/01/09 07:33:30;;;;;;;4.40;1.00;;;5.40;53.90;;;;;;5104025;28;34134;-77
2022/01/09 07:35:56;;;;;;;3.08;1.00;;;5.40;54.00;;;;;;5086931;28;35256;-77
2022/01/09 07:38:23;;;;;;;2.95;0.82;;;5.40;53.90;;;;;;5086431;28;34192;-77
2022/01/09 07:40:50;;;;;;;5.60;1.25;;;5.30;53.50;;;;;;5104674;28;34188;-77
2022/01/09 07:43:16;;;;;;;5.13;1.10;;;5.30;53.60;;;;;;5086266;28;34190;-77
2022/01/09 07:45:42;;;;;;;4.30;1.10;;;5.30;53.70;;;;;;5104478;28;34337;-77
2022/01/09 07:48:08;;;;;;;2.80;0.95;;;5.30;54.20;;;;;;5104279;28;34362;-77
2022/01/09 07:50:34;;;;;;;7.85;1.67;;;5.30;53.90;;;;;;5104723;28;34201;-77
2022/01/09 07:53:00;;;;;;;5.03;1.38;;;5.30;54.10;;;;;;5086486;28;34079;-77
2022/01/09 07:55:26;;;;;;;5.13;1.25;;;5.30;54.30;;;;;;5085998;28;36617;-77
2022/01/09 07:57:52;;;;;;;2.92;1.13;;;5.40;54.50;;;;;;5086318;28;34290;-77
2022/01/09 08:00:19;;;;;;;3.85;1.02;;;5.30;54.10;;;;;;5068658;28;34189;-77
2022/01/09 08:02:46;;;;;;;5.63;1.05;;;5.30;54.60;;;;;;5103148;27;34417;-77
2022/01/09 08:05:14;;;;;;;6.70;1.08;;;5.30;53.80;;;;;;5085572;27;36251;-77
2022/01/09 08:07:40;;;;;;;8.05;1.40;;;5.40;54.00;;;;;;5086487;28;34326;-77
2022/01/09 08:10:08;;;;;;;2.90;1.45;;;5.40;53.80;;;;;;5085724;28;34274;-77
2022/01/09 08:12:34;;;;;;;8.45;1.05;;;5.40;53.90;;;;;;5069600;28;34508;-77
2022/01/09 08:15:00;;;;;;;6.38;1.30;;;5.40;54.10;;;;;;5085332;28;36613;-77
2022/01/09 08:17:26;;;;;;;1.83;0.90;;;5.30;53.90;;;;;;5085975;28;34224;-77
2022/01/09 08:19:52;;;;;;;3.78;0.77;;;5.40;53.90;;;;;;5103924;28;34188;-77
2022/01/09 08:22:18;;;;;;;6.20;1.48;;;5.30;53.90;;;;;;5085550;28;34605;-77
2022/01/09 08:24:45;;;;;;;4.90;1.10;;;5.30;54.00;;;;;;5068735;28;36373;-77
2022/01/09 08:27:11;;;;;;;3.47;1.17;;;5.30;54.00;;;;;;5103926;28;34209;-77
2022/01/09 08:29:37;;;;;;;1.85;0.90;;;5.30;53.90;;;;;;5103765;28;34345;-77
2022/01/09 08:32:06;;;;;;;3.17;0.95;;;5.40;53.80;;;;;;5085630;28;34336;-77
2022/01/09 08:34:33;;;;;;;9.85;1.20;;;5.40;54.10;;;;;;5085662;28;36430;-77
2022/01/09 08:36:59;;;;;;;3.60;1.13;;;5.40;54.00;;;;;;5102953;27;34158;-77
2022/01/09 08:39:25;;;;;;;0.85;0.70;;;5.40;54.70;;;;;;5085391;28;34286;-77
2022/01/09 08:41:51;;;;;;;1.25;0.80;;;5.50;54.10;;;;;;5085537;28;34183;-77
2022/01/09 08:44:17;;;;;;;4.25;1.02;;;5.50;54.20;;;;;;5084993;28;36551;-77
2022/01/09 08:46:43;;;;;;;2.88;1.10;;;5.50;54.20;;;;;;5085358;28;34245;-77
2022/01/09 08:49:09;;;;;;;2.38;0.90;;;5.60;54.40;;;;;;5068699;28;34162;-77
2022/01/09 08:51:41;;;;;;;3.78;1.13;;;5.60;54.60;;;;;;5086286;28;34083;-77
2022/01/09 08:54:07;;;;;;;3.45;1.20;;;5.60;54.40;;;;;;5067704;28;35680;-77
2022/01/09 08:56:36;;;;;;;4.47;1.00;;;5.70;54.20;;;;;;5085110;28;34170;-77
2022/01/09 08:59:02;;;;;;;4.38;1.30;;;5.70;54.30;;;;;;5068744;28;34446;-77
2022/01/09 09:01:28;;;;;;;4.82;1.00;;;5.70;54.20;;;;;;5084966;28;34163;-77
2022/01/09 09:03:54;;;;;;;3.85;1.13;;;5.70;53.70;;;;;;5085318;28;35914;-77
2022/01/09 09:06:20;;;;;;;6.25;1.17;;;5.70;53.80;;;;;;5085369;28;34351;-77
2022/01/09 09:08:47;;;;;;;5.43;1.17;;;5.80;53.80;;;;;;5103129;28;34308;-77
2022/01/09 09:11:13;;;;;;;8.88;1.17;;;5.70;53.70;;;;;;5084868;28;34234;-77
2022/01/09 09:13:39;;;;;;;3.47;0.95;;;5.80;54.00;;;;;;5085123;28;36467;-77
2022/01/09 09:16:08;;;;;;;2.72;1.13;;;5.80;53.70;;;;;;5068172;28;34151;-77
2022/01/09 09:18:34;;;;;;;2.63;1.00;;;5.90;53.90;;;;;;5085542;28;34099;-77
2022/01/09 09:21:00;;;;;;;1.63;0.98;;;5.90;54.10;;;;;;5084701;28;34107;-77
2022/01/09 09:23:26;;;;;;;4.50;1.50;;;5.90;54.00;;;;;;5101152;28;35220;-77
2022/01/09 09:25:52;;;;;;;5.95;1.02;;;6.00;54.20;;;;;;5084433;28;34301;-77
2022/01/09 09:28:19;;;;;;;4.07;1.00;;;6.00;53.80;;;;;;5103615;28;34170;-77
2022/01/09 09:30:45;;;;;;;5.80;1.30;;;6.10;54.00;;;;;;5062734;28;34559;-77
2022/01/09 09:33:11;;;;;;;8.48;1.52;;;6.10;53.90;;;;;;5079078;28;36714;-77
2022/01/09 09:35:37;;;;;;;5.18;1.10;;;6.20;53.60;;;;;;5060624;28;34378;-77
2022/01/09 09:38:04;;;;;;;5.43;1.35;;;6.20;53.60;;;;;;5061740;28;34360;-77
2022/01/09 09:40:32;;;;;;;5.00;1.33;;;6.30;53.90;;;;;;5061212;28;34499;-77
2022/01/09 09:42:58;;;;;;;4.60;1.42;;;6.40;53.90;;;;;;5077435;28;34445;-76
2022/01/09 09:45:25;;;;;;;6.88;1.50;;;6.40;53.80;;;;;;5062862;28;34043;-77
2022/01/09 09:47:52;;;;;;;2.10;0.90;;;6.40;53.60;;;;;;5060929;28;34326;-77
2022/01/09 09:50:20;;;;;;;5.82;1.65;;;6.40;53.40;;;;;;5060644;28;34087;-76
2022/01/09 09:52:48;;;;;;;6.35;1.45;;;6.40;53.60;;;;;;5060416;28;35654;-77
2022/01/09 09:55:16;;;;;;;7.68;1.55;;;6.40;53.40;;;;;;5059827;28;35216;-76
2022/01/09 09:57:43;;;;;;;7.28;1.70;;;6.50;53.60;;;;;;5060586;28;34270;-77
2022/01/09 10:00:12;;;;;;;11.57;2.10;;;6.50;53.70;;;;;;5061657;28;34140;-77
2022/01/09 10:02:46;;;;;;;5.43;1.92;;;6.50;53.30;;;;;;5077862;28;35314;-77
2022/01/09 10:05:15;;;;;;;3.97;1.40;;;6.60;53.20;;;;;;5060205;28;34105;-77
2022/01/09 10:07:41;;;;;;;2.50;1.02;;;6.60;53.10;;;;;;5060689;28;34390;-77
2022/01/09 10:10:11;;;;;;;3.97;1.50;;;6.60;53.10;;;;;;5060128;28;34196;-77
2022/01/09 10:12:38;;;;;;;6.15;1.17;;;6.60;53.30;;;;;;5060275;28;36116;-77
2022/01/09 10:15:09;;;;;;;1.67;1.02;;;6.60;53.30;;;;;;5086060;27;34308;-78
2022/01/09 10:17:40;;;;;;;6.85;1.25;;;6.60;53.20;;;;;;5063802;28;34083;-77
2022/01/09 10:20:17;;;;;;;6.68;1.42;;;6.60;53.30;;;;;;5064082;28;34374;-77
2022/01/09 10:22:46;;;;;;;5.32;1.60;;;6.70;53.50;;;;;;5080725;28;34222;-77
2022/01/09 10:25:31;;;;;;;5.20;1.40;;;6.70;53.50;;;;;;5063341;28;34316;-77
2022/01/09 10:28:09;;;;;;;4.63;1.75;;;6.70;53.30;;;;;;5080678;28;34359;-77
2022/01/09 10:30:41;;;;;;;1.65;1.08;;;6.80;53.00;;;;;;5080140;27;34662;-76
2022/01/09 10:33:11;;;;;;;6.30;1.33;;;6.80;53.30;;;;;;5080488;27;35882;-77
2022/01/09 10:35:40;;;;;;;6.97;1.85;;;6.90;53.30;;;;;;5082186;28;34229;-77
2022/01/09 10:38:12;;;;;;;2.55;1.10;;;6.90;53.50;;;;;;5083984;28;34115;-77
2022/01/09 10:40:39;;;;;;;7.22;1.58;;;6.90;53.40;;;;;;5083700;28;34266;-77
2022/01/09 10:43:10;;;;;;;3.45;1.45;;;7.00;53.40;;;;;;5067354;28;35682;-76
2022/01/09 10:45:41;;;;;;;5.78;1.52;;;7.20;53.40;;;;;;5084365;28;34309;-76
2022/01/09 10:48:12;;;;;;;5.82;1.45;;;7.30;52.90;;;;;;5066478;28;34298;-76
2022/01/09 10:50:42;;;;;;;4.38;1.05;;;7.40;52.70;;;;;;5084491;28;34238;-76
2022/01/09 10:53:27;;;;;;;7.32;1.38;;;7.50;52.70;;;;;;5084334;28;35022;-77
2022/01/09 10:56:10;;;;;;;6.00;1.20;;;7.60;52.30;;;;;;5067395;28;34364;-76
2022/01/09 10:58:40;;;;;;;4.85;1.38;;;7.60;52.30;;;;;;5084855;28;34157;-77
2022/01/09 11:01:16;;;;;;;5.57;1.30;;;7.70;52.60;;;;;;5083480;28;34365;-76
2022/01/09 11:03:45;;;;;;;5.47;1.50;;;7.70;52.20;;;;;;5101072;27;35738;-76
2022/01/09 11:06:12;;;;;;;5.25;1.58;;;7.70;52.20;;;;;;5083746;28;34244;-77
2022/01/09 11:08:39;;;;;;;5.40;1.17;;;7.70;52.40;;;;;;5066726;28;34216;-77
2022/01/09 11:11:09;;;;;;;2.88;1.15;;;7.90;51.90;;;;;;5083910;28;34557;-76
2022/01/09 11:13:41;;;;;;;2.80;1.35;;;8.00;52.50;;;;;;5083331;28;35679;-76
2022/01/09 11:18:50;;;;;;;5.22;1.25;;;8.10;52.00;;;;;;5084677;28;34308;-76
2022/01/09 11:21:16;;;;;;;5.28;1.00;;;8.00;51.90;;;;;;5083855;28;34377;-76
2022/01/09 11:23:59;;;;;;;6.60;1.30;;;7.90;52.20;;;;;;5083101;28;35829;-77
2022/01/09 11:26:37;;;;;;;5.30;1.63;;;7.70;52.00;;;;;;5101879;27;34182;-76
2022/01/09 11:29:07;;;;;;;7.32;1.27;;;7.50;52.30;;;;;;5083528;27;34293;-77
2022/01/09 11:31:42;;;;;;;2.92;1.10;;;7.40;52.60;;;;;;5083793;28;34498;-76
2022/01/09 11:34:25;;;;;;;4.00;1.08;;;7.30;52.40;;;;;;5066949;28;35574;-76
2022/01/09 11:37:08;;;;;;;4.40;1.33;;;7.20;52.00;;;;;;5083881;28;34284;-76
2022/01/09 11:39:36;;;;;;;5.13;1.13;;;7.10;52.10;;;;;;5084787;28;34081;-76
2022/01/09 11:42:17;;;;;;;2.92;1.20;;;7.10;53.10;;;;;;5084835;28;34421;-76
2022/01/09 11:44:53;;;;;;;2.85;1.23;;;7.20;53.10;;;;;;5083716;28;35996;-76
2022/01/09 11:47:19;;;;;;;6.05;1.00;;;7.30;53.60;;;;;;5083534;28;34454;-76
2022/01/09 11:50:07;;;;;;;4.07;1.30;;;7.30;53.50;;;;;;5066519;28;34169;-76
2022/01/09 11:52:53;;;;;;;6.45;1.20;;;7.30;52.30;;;;;;5086105;27;34493;-76
2022/01/09 11:55:34;;;;;;;5.05;1.38;;;7.30;53.10;;;;;;5054625;28;35752;-76
2022/01/09 11:58:02;;;;;;;3.05;1.13;;;7.30;52.90;;;;;;5082937;28;34820;-76
2022/01/09 12:00:36;;;;;;;2.33;1.10;;;7.30;53.30;;;;;;5099874;27;34424;-76
2022/01/09 12:03:34;;;;;;;2.58;0.93;;;7.40;53.20;;;;;;5083815;27;34138;-76
2022/01/09 12:06:04;;;;;;;4.38;1.20;;;7.40;52.60;;;;;;5088230;27;35818;-76
2022/01/09 12:09:09;;;;;;;2.80;1.20;;;7.60;53.30;;;;;;5083452;27;34266;-76
2022/01/09 12:12:06;;;;;;;2.60;0.98;;;7.60;52.50;;;;;;5083623;28;34260;-76
2022/01/09 12:15:01;;;;;;;2.97;0.95;;;7.70;52.10;;;;;;5082858;28;34208;-76
2022/01/09 12:17:40;;;;;;;5.20;0.98;;;7.70;52.10;;;;;;5083314;28;34363;-77
2022/01/09 12:20:28;;;;;;;3.03;1.20;;;7.80;51.80;;;;;;5082548;28;34338;-76
2022/01/09 12:23:01;;;;;;;2.45;0.90;;;7.80;52.20;;;;;;5082175;28;34180;-76
2022/01/09 12:25:44;;;;;;;2.33;1.13;;;7.90;51.90;;;;;;5082804;28;34299;-76
2022/01/09 12:28:15;;;;;;;4.60;1.05;;;7.90;50.20;;;;;;5083438;28;34297;-77
2022/01/09 12:30:44;;;;;;;7.55;1.30;;;7.80;51.70;;;;;;5082057;28;34022;-76
2022/01/09 12:33:28;;;;;;;2.45;1.20;;;7.70;51.50;;;;;;5082246;28;34155;-76
2022/01/09 12:35:59;;;;;;;3.60;1.13;;;7.70;51.80;;;;;;5067356;28;34290;-76
2022/01/09 12:38:29;;;;;;;4.18;1.20;;;7.60;51.90;;;;;;5099397;27;35769;-76
2022/01/09 12:41:00;;;;;;;4.63;1.55;;;7.60;52.20;;;;;;5083648;28;34403;-76
2022/01/09 12:43:27;;;;;;;2.05;1.02;;;7.60;52.20;;;;;;5082168;28;34288;-76
2022/01/09 12:45:54;;;;;;;4.18;1.17;;;7.60;52.50;;;;;;5065346;28;34475;-76
2022/01/09 12:48:28;;;;;;;5.68;1.00;;;7.50;52.50;;;;;;5082570;28;34490;-76
2022/01/09 12:50:55;;;;;;;3.20;1.42;;;7.40;52.30;;;;;;5079888;28;34408;-76
2022/01/09 12:53:27;;;;;;;2.65;0.88;;;7.40;52.80;;;;;;5082027;28;34558;-76
2022/01/09 12:56:09;;;;;;;2.53;1.02;;;7.40;52.50;;;;;;5082614;28;34354;-76
2022/01/09 12:58:43;;;;;;;5.32;1.27;;;7.40;53.20;;;;;;5082444;28;35516;-76
2022/01/09 13:01:19;;;;;;;4.00;1.20;;;7.30;52.10;;;;;;5065559;28;34301;-76
2022/01/09 13:03:48;;;;;;;6.00;1.60;;;7.40;52.20;;;;;;5083026;28;34225;-76
2022/01/09 13:06:21;;;;;;;2.85;1.02;;;7.40;52.70;;;;;;5066773;28;34169;-77
2022/01/09 13:08:49;;;;;;;4.07;1.10;;;7.50;52.30;;;;;;5084230;28;35319;-76